Time,TemperatureF,DewpointF,PressureIn,WindDirection,WindDirectionDegrees,WindSpeedMPH,WindSpeedGustMPH,Humidity,HourlyPrecipIn,Conditions,Clouds,dailyrainin,SoftwareType,DateUTC
2013-08-18 00:00:00,61.3,55.8,30.18,ENE,58,0.0,0.0,82,0.00,,,0.00,Wunderground v.1.15,2013-08-18 05:00:00,
2013-08-18 00:10:00,61.2,56.0,30.18,ENE,58,0.0,0.0,83,0.00,,,0.00,Wunderground v.1.15,2013-08-18 05:10:00,
2013-08-18 00:15:00,61.1,55.9,30.18,ENE,58,0.0,0.0,83,0.00,,,0.00,Wunderground v.1.15,2013-08-18 05:15:00,
2013-08-18 00:25:00,60.9,55.7,30.18,ENE,58,0.0,0.0,83,0.00,,,0.00,Wunderground v.1.15,2013-08-18 05:25:00,
2013-08-18 00:30:00,60.8,55.6,30.18,ENE,58,0.0,0.0,83,0.00,,,0.00,Wunderground v.1.15,2013-08-18 05:30:00,
2013-08-18 00:40:00,60.6,55.4,30.18,ENE,58,0.0,0.0,83,0.00,,,0.00,Wunderground v.1.15,2013-08-18 05:40:00,
2013-08-18 00:50:00,60.5,55.6,30.18,ENE,58,0.0,0.0,84,0.00,,,0.00,Wunderground v.1.15,2013-08-18 05:50:00,
2013-08-18 00:55:00,60.4,55.5,30.17,ENE,58,0.0,0.0,84,0.00,,,0.00,Wunderground v.1.15,2013-08-18 05:55:00,
2013-08-18 01:05:00,60.3,55.4,30.17,ENE,58,0.0,0.0,84,0.00,,,0.00,Wunderground v.1.15,2013-08-18 06:05:00,
2013-08-18 01:10:00,60.2,55.3,30.17,ENE,58,0.0,0.0,84,0.00,,,0.00,Wunderground v.1.15,2013-08-18 06:10:00,
2013-08-18 01:20:00,60.1,55.2,30.17,ENE,58,0.0,0.0,84,0.00,,,0.00,Wunderground v.1.15,2013-08-18 06:20:00,
2013-08-18 01:30:00,59.9,55.1,30.17,ENE,58,0.0,0.0,84,0.00,,,0.00,Wunderground v.1.15,2013-08-18 06:30:00,
2013-08-18 01:35:00,59.9,55.1,30.17,ENE,58,0.0,0.0,84,0.00,,,0.00,Wunderground v.1.15,2013-08-18 06:35:00,
2013-08-18 01:40:00,59.8,55.0,30.17,ENE,58,0.0,0.0,84,0.00,,,0.00,Wunderground v.1.15,2013-08-18 06:40:00,
2013-08-18 01:50:00,59.7,55.2,30.17,ENE,58,0.0,0.0,85,0.00,,,0.00,Wunderground v.1.15,2013-08-18 06:50:00,
2013-08-18 02:00:00,59.6,54.8,30.17,ENE,58,0.0,0.0,84,0.00,,,0.00,Wunderground v.1.15,2013-08-18 07:00:00,
2013-08-18 02:05:00,59.6,54.8,30.17,ENE,58,0.0,0.0,84,0.00,,,0.00,Wunderground v.1.15,2013-08-18 07:05:00,
2013-08-18 02:15:00,59.5,55.0,30.17,ENE,58,0.0,0.0,85,0.00,,,0.00,Wunderground v.1.15,2013-08-18 07:15:00,
2013-08-18 02:20:00,59.4,54.6,30.17,ENE,58,0.0,0.0,84,0.00,,,0.00,Wunderground v.1.15,2013-08-18 07:20:00,
2013-08-18 02:25:00,59.3,54.8,30.17,ENE,58,0.0,0.0,85,0.00,,,0.00,Wunderground v.1.15,2013-08-18 07:25:00,
2013-08-18 02:35:00,59.0,54.2,30.17,ENE,58,0.0,0.0,84,0.00,,,0.00,Wunderground v.1.15,2013-08-18 07:35:00,
2013-08-18 02:45:00,58.8,54.3,30.17,ENE,58,0.0,0.0,85,0.00,,,0.00,Wunderground v.1.15,2013-08-18 07:45:00,
2013-08-18 02:50:00,58.7,54.2,30.17,ENE,58,0.0,0.0,85,0.00,,,0.00,Wunderground v.1.15,2013-08-18 07:50:00,
2013-08-18 03:00:00,58.5,54.0,30.16,ENE,58,0.0,0.0,85,0.00,,,0.00,Wunderground v.1.15,2013-08-18 08:00:00,
2013-08-18 03:05:00,58.4,53.9,30.16,ENE,58,0.0,0.0,85,0.00,,,0.00,Wunderground v.1.15,2013-08-18 08:05:00,
2013-08-18 03:15:00,58.3,53.8,30.16,ENE,58,0.0,0.0,85,0.00,,,0.00,Wunderground v.1.15,2013-08-18 08:15:00,
2013-08-18 03:20:00,58.2,53.7,30.16,ENE,58,0.0,0.0,85,0.00,,,0.00,Wunderground v.1.15,2013-08-18 08:20:00,
2013-08-18 03:30:00,58.1,53.6,30.16,ENE,58,0.0,0.0,85,0.00,,,0.00,Wunderground v.1.15,2013-08-18 08:30:00,
2013-08-18 03:35:00,58.0,53.5,30.16,ENE,58,0.0,0.0,85,0.00,,,0.00,Wunderground v.1.15,2013-08-18 08:35:00,
2013-08-18 03:45:00,57.8,53.3,30.16,ENE,58,0.0,0.0,85,0.00,,,0.00,Wunderground v.1.15,2013-08-18 08:45:00,
2013-08-18 03:50:00,57.8,53.3,30.16,ENE,58,0.0,0.0,85,0.00,,,0.00,Wunderground v.1.15,2013-08-18 08:50:00,
2013-08-18 04:00:00,57.6,53.4,30.16,ENE,58,0.0,0.0,86,0.00,,,0.00,Wunderground v.1.15,2013-08-18 09:00:00,
2013-08-18 04:10:00,57.5,53.3,30.16,ENE,58,0.0,0.0,86,0.00,,,0.00,Wunderground v.1.15,2013-08-18 09:10:00,
2013-08-18 04:15:00,57.4,53.2,30.16,ENE,58,0.0,0.0,86,0.00,,,0.00,Wunderground v.1.15,2013-08-18 09:15:00,
2013-08-18 04:25:00,57.3,53.1,30.16,ENE,58,0.0,0.0,86,0.00,,,0.00,Wunderground v.1.15,2013-08-18 09:25:00,
2013-08-18 04:30:00,57.2,53.0,30.16,ENE,58,0.0,0.0,86,0.00,,,0.00,Wunderground v.1.15,2013-08-18 09:30:00,
2013-08-18 04:40:00,57.1,53.0,30.16,ENE,58,0.0,0.0,86,0.00,,,0.00,Wunderground v.1.15,2013-08-18 09:40:00,
2013-08-18 04:50:00,56.9,52.8,30.16,ENE,58,0.0,0.0,86,0.00,,,0.00,Wunderground v.1.15,2013-08-18 09:50:00,
2013-08-18 04:55:00,56.9,52.8,30.16,ENE,58,0.0,0.0,86,0.00,,,0.00,Wunderground v.1.15,2013-08-18 09:55:00,
2013-08-18 05:00:00,56.8,52.7,30.16,ENE,58,0.0,0.0,86,0.00,,,0.00,Wunderground v.1.15,2013-08-18 10:00:00,
2013-08-18 05:10:00,56.7,52.9,30.16,ENE,58,0.0,0.0,87,0.00,,,0.00,Wunderground v.1.15,2013-08-18 10:10:00,
2013-08-18 05:20:00,56.6,52.8,30.17,ENE,58,0.0,0.0,87,0.00,,,0.00,Wunderground v.1.15,2013-08-18 10:20:00,
2013-08-18 05:25:00,56.5,52.7,30.17,ENE,58,0.0,0.0,87,0.00,,,0.00,Wunderground v.1.15,2013-08-18 10:25:00,
2013-08-18 05:35:00,56.4,52.6,30.17,ENE,58,0.0,0.0,87,0.00,,,0.00,Wunderground v.1.15,2013-08-18 10:35:00,
2013-08-18 05:40:00,56.3,52.5,30.17,ENE,58,0.0,0.0,87,0.00,,,0.00,Wunderground v.1.15,2013-08-18 10:40:00,
2013-08-18 05:50:00,56.2,52.4,30.18,ENE,58,0.0,0.0,87,0.00,,,0.00,Wunderground v.1.15,2013-08-18 10:50:00,
2013-08-18 05:55:00,56.1,52.3,30.18,ENE,58,0.0,0.0,87,0.00,,,0.00,Wunderground v.1.15,2013-08-18 10:55:00,
2013-08-18 06:05:00,56.0,52.2,30.18,ENE,58,1.0,1.0,87,0.00,,,0.00,Wunderground v.1.15,2013-08-18 11:05:00,
2013-08-18 06:10:00,55.9,52.1,30.18,ENE,58,1.0,2.0,87,0.00,,,0.00,Wunderground v.1.15,2013-08-18 11:10:00,
2013-08-18 06:20:00,55.9,52.4,30.19,ENE,58,2.0,2.0,88,0.00,,,0.00,Wunderground v.1.15,2013-08-18 11:20:00,
2013-08-18 06:25:00,55.9,52.4,30.19,ENE,58,1.0,2.0,88,0.00,,,0.00,Wunderground v.1.15,2013-08-18 11:25:00,
2013-08-18 06:35:00,55.9,52.4,30.19,ENE,58,1.0,2.0,88,0.00,,,0.00,Wunderground v.1.15,2013-08-18 11:35:00,
2013-08-18 06:40:00,56.0,52.5,30.19,ENE,58,2.0,2.0,88,0.00,,,0.00,Wunderground v.1.15,2013-08-18 11:40:00,
2013-08-18 06:50:00,56.2,53.0,30.20,ENE,58,1.0,3.0,89,0.00,,,0.00,Wunderground v.1.15,2013-08-18 11:50:00,
2013-08-18 06:55:00,56.3,53.1,30.20,ENE,58,1.0,3.0,89,0.00,,,0.00,Wunderground v.1.15,2013-08-18 11:55:00,
2013-08-18 07:05:00,56.6,53.4,30.20,ENE,58,1.0,1.0,89,0.00,,,0.00,Wunderground v.1.15,2013-08-18 12:05:00,
2013-08-18 07:15:00,57.0,53.8,30.20,ENE,58,0.0,1.0,89,0.00,,,0.00,Wunderground v.1.15,2013-08-18 12:15:00,
2013-08-18 07:20:00,57.2,54.3,30.20,ENE,58,0.0,0.0,90,0.00,,,0.00,Wunderground v.1.15,2013-08-18 12:20:00,
2013-08-18 07:30:00,57.7,54.8,30.20,ENE,58,0.0,0.0,90,0.00,,,0.00,Wunderground v.1.15,2013-08-18 12:30:00,
2013-08-18 07:35:00,58.0,55.1,30.20,ENE,58,0.0,0.0,90,0.00,,,0.00,Wunderground v.1.15,2013-08-18 12:35:00,
2013-08-18 07:45:00,58.7,55.8,30.20,ENE,58,1.0,1.0,90,0.00,,,0.00,Wunderground v.1.15,2013-08-18 12:45:00,
2013-08-18 07:50:00,59.1,56.2,30.21,ENE,58,0.0,0.0,90,0.00,,,0.00,Wunderground v.1.15,2013-08-18 12:50:00,
2013-08-18 08:00:00,60.2,57.6,30.21,ENE,58,0.0,0.0,91,0.00,,,0.00,Wunderground v.1.15,2013-08-18 13:00:00,
2013-08-18 08:05:00,61.1,58.5,30.21,ENE,58,0.0,0.0,91,0.00,,,0.00,Wunderground v.1.15,2013-08-18 13:05:00,
2013-08-18 08:15:00,62.9,59.3,30.21,ENE,58,0.0,0.0,88,0.00,,,0.00,Wunderground v.1.15,2013-08-18 13:15:00,
2013-08-18 08:20:00,64.1,59.5,30.21,ENE,58,0.0,0.0,85,0.00,,,0.00,Wunderground v.1.15,2013-08-18 13:20:00,
2013-08-18 08:30:00,66.2,60.2,30.21,ENE,58,0.0,2.0,81,0.00,,,0.00,Wunderground v.1.15,2013-08-18 13:30:00,
2013-08-18 08:35:00,67.2,60.5,30.21,ENE,58,1.0,2.0,79,0.00,,,0.00,Wunderground v.1.15,2013-08-18 13:35:00,
2013-08-18 08:45:00,69.1,60.5,30.21,ENE,58,1.0,2.0,74,0.00,,,0.00,Wunderground v.1.15,2013-08-18 13:45:00,
2013-08-18 08:50:00,69.7,61.0,30.21,ENE,58,1.0,1.0,74,0.00,,,0.00,Wunderground v.1.15,2013-08-18 13:50:00,
2013-08-18 09:00:00,71.5,62.0,30.21,ENE,57,1.0,1.0,72,0.00,,,0.00,Wunderground v.1.15,2013-08-18 14:00:00,
2013-08-18 09:05:00,72.5,62.2,30.21,ENE,57,1.0,1.0,70,0.00,,,0.00,Wunderground v.1.15,2013-08-18 14:05:00,
2013-08-18 09:15:00,73.9,62.7,30.21,NE,50,1.0,1.0,68,0.00,,,0.00,Wunderground v.1.15,2013-08-18 14:15:00,
2013-08-18 09:20:00,74.4,62.7,30.21,NE,50,1.0,1.0,67,0.00,,,0.00,Wunderground v.1.15,2013-08-18 14:20:00,
2013-08-18 09:30:00,75.2,62.2,30.21,NE,49,1.0,3.0,64,0.00,,,0.00,Wunderground v.1.15,2013-08-18 14:30:00,
2013-08-18 09:35:00,75.9,62.8,30.21,NE,49,1.0,3.0,64,0.00,,,0.00,Wunderground v.1.15,2013-08-18 14:35:00,
2013-08-18 09:45:00,77.1,64.0,30.21,NE,49,1.0,1.0,64,0.00,,,0.00,Wunderground v.1.15,2013-08-18 14:45:00,
2013-08-18 09:50:00,77.8,62.3,30.21,NE,46,1.0,1.0,59,0.00,,,0.00,Wunderground v.1.15,2013-08-18 14:50:00,
2013-08-18 10:00:00,78.8,63.3,30.21,NE,49,0.0,3.0,59,0.00,,,0.00,Wunderground v.1.15,2013-08-18 15:00:00,
2013-08-18 10:05:00,79.3,65.1,30.21,NE,49,1.0,3.0,62,0.00,,,0.00,Wunderground v.1.15,2013-08-18 15:05:00,
2013-08-18 10:15:00,80.7,64.1,30.21,NE,34,1.0,3.0,57,0.00,,,0.00,Wunderground v.1.15,2013-08-18 15:15:00,
2013-08-18 10:20:00,81.6,64.4,30.21,NE,34,1.0,1.0,56,0.00,,,0.00,Wunderground v.1.15,2013-08-18 15:20:00,
2013-08-18 10:30:00,83.1,65.3,30.21,NNW,340,2.0,2.0,55,0.00,,,0.00,Wunderground v.1.15,2013-08-18 15:30:00,
2013-08-18 10:40:00,83.9,64.9,30.21,North,5,1.0,2.0,53,0.00,,,0.00,Wunderground v.1.15,2013-08-18 15:40:00,
2013-08-18 10:45:00,84.4,65.9,30.20,North,5,1.0,2.0,54,0.00,,,0.00,Wunderground v.1.15,2013-08-18 15:45:00,
2013-08-18 10:50:00,84.8,65.2,30.20,North,360,1.0,1.0,52,0.00,,,0.00,Wunderground v.1.15,2013-08-18 15:50:00,
2013-08-18 11:00:00,85.7,66.6,30.20,NNE,13,1.0,5.0,53,0.00,,,0.00,Wunderground v.1.15,2013-08-18 16:00:00,
2013-08-18 11:05:00,85.7,64.9,30.20,NNE,13,1.0,5.0,50,0.00,,,0.00,Wunderground v.1.15,2013-08-18 16:05:00,
2013-08-18 11:15:00,86.2,64.2,30.20,NNE,20,2.0,3.0,48,0.00,,,0.00,Wunderground v.1.15,2013-08-18 16:15:00,
2013-08-18 11:25:00,85.5,65.3,30.19,NNE,21,2.0,3.0,51,0.00,,,0.00,Wunderground v.1.15,2013-08-18 16:25:00,
2013-08-18 11:30:00,85.4,65.2,30.19,NNE,31,2.0,2.0,51,0.00,,,0.00,Wunderground v.1.15,2013-08-18 16:30:00,
2013-08-18 11:35:00,85.5,64.2,30.19,NNE,31,2.0,2.0,49,0.00,,,0.00,Wunderground v.1.15,2013-08-18 16:35:00,
2013-08-18 11:45:00,85.7,64.9,30.19,NE,38,1.0,1.0,50,0.00,,,0.00,Wunderground v.1.15,2013-08-18 16:45:00,
2013-08-18 11:50:00,86.0,64.0,30.19,NE,48,1.0,1.0,48,0.00,,,0.00,Wunderground v.1.15,2013-08-18 16:50:00,
2013-08-18 12:00:00,86.2,65.9,30.19,ENE,63,2.0,3.0,51,0.00,,,0.00,Wunderground v.1.15,2013-08-18 17:00:00,
2013-08-18 12:05:00,86.3,63.7,30.18,ENE,61,2.0,3.0,47,0.00,,,0.00,Wunderground v.1.15,2013-08-18 17:05:00,
2013-08-18 12:15:00,86.7,65.3,30.18,NNE,32,1.0,3.0,49,0.00,,,0.00,Wunderground v.1.15,2013-08-18 17:15:00,
2013-08-18 12:20:00,87.2,63.9,30.18,NNE,30,2.0,3.0,46,0.00,,,0.00,Wunderground v.1.15,2013-08-18 17:20:00,
2013-08-18 12:30:00,88.2,64.2,30.18,NNE,30,1.0,3.0,45,0.00,,,0.00,Wunderground v.1.15,2013-08-18 17:30:00,
2013-08-18 12:40:00,88.4,63.7,30.18,NE,51,2.0,3.0,44,0.00,,,0.00,Wunderground v.1.15,2013-08-18 17:40:00,
2013-08-18 12:45:00,88.5,65.1,30.17,NE,51,1.0,3.0,46,0.00,,,0.00,Wunderground v.1.15,2013-08-18 17:45:00,
2013-08-18 12:50:00,88.9,64.2,30.17,NE,51,0.0,3.0,44,0.00,,,0.00,Wunderground v.1.15,2013-08-18 17:50:00,
2013-08-18 13:00:00,88.3,63.6,30.17,ENE,58,2.0,2.0,44,0.00,,,0.00,Wunderground v.1.15,2013-08-18 18:00:00,
2013-08-18 13:10:00,87.4,63.5,30.17,ENE,73,1.0,3.0,45,0.00,,,0.00,Wunderground v.1.15,2013-08-18 18:10:00,
2013-08-18 13:15:00,87.1,61.2,30.17,East,81,2.0,3.0,42,0.00,,,0.00,Wunderground v.1.15,2013-08-18 18:15:00,
2013-08-18 13:25:00,86.8,64.8,30.17,East,100,2.0,3.0,48,0.00,,,0.00,Wunderground v.1.15,2013-08-18 18:25:00,
2013-08-18 13:30:00,86.8,62.9,30.16,South,178,2.0,3.0,45,0.00,,,0.00,Wunderground v.1.15,2013-08-18 18:30:00,
2013-08-18 13:40:00,87.0,64.9,30.16,SSE,150,3.0,3.0,48,0.00,,,0.00,Wunderground v.1.15,2013-08-18 18:40:00,
2013-08-18 13:45:00,87.0,62.5,30.16,ESE,109,3.0,3.0,44,0.00,,,0.00,Wunderground v.1.15,2013-08-18 18:45:00,
2013-08-18 13:55:00,86.8,66.5,30.15,ESE,106,0.0,3.0,51,0.00,,,0.00,Wunderground v.1.15,2013-08-18 18:55:00,
2013-08-18 14:00:00,86.8,62.3,30.15,ESE,103,1.0,2.0,44,0.00,,,0.00,Wunderground v.1.15,2013-08-18 19:00:00,
2013-08-18 14:10:00,86.7,61.5,30.15,ENE,59,2.0,2.0,43,0.00,,,0.00,Wunderground v.1.15,2013-08-18 19:10:00,
2013-08-18 14:20:00,86.8,62.3,30.15,ENE,58,2.0,2.0,44,0.00,,,0.00,Wunderground v.1.15,2013-08-18 19:20:00,
2013-08-18 14:25:00,86.7,60.9,30.15,East,95,2.0,6.0,42,0.00,,,0.00,Wunderground v.1.15,2013-08-18 19:25:00,
2013-08-18 14:35:00,85.7,61.3,30.15,SSE,157,3.0,5.0,44,0.00,,,0.00,Wunderground v.1.15,2013-08-18 19:35:00,
2013-08-18 14:40:00,85.2,61.5,30.15,SSE,160,3.0,3.0,45,0.00,,,0.00,Wunderground v.1.15,2013-08-18 19:40:00,
2013-08-18 14:50:00,85.5,64.2,30.15,South,181,3.0,3.0,49,0.00,,,0.00,Wunderground v.1.15,2013-08-18 19:50:00,
2013-08-18 14:55:00,85.9,62.1,30.14,South,170,3.0,4.0,45,0.00,,,0.00,Wunderground v.1.15,2013-08-18 19:55:00,
2013-08-18 15:05:00,85.9,63.9,30.14,SSE,165,2.0,3.0,48,0.00,,,0.00,Wunderground v.1.15,2013-08-18 20:05:00,
2013-08-18 15:10:00,86.0,63.4,30.14,SSW,201,2.0,2.0,47,0.00,,,0.00,Wunderground v.1.15,2013-08-18 20:10:00,
2013-08-18 15:20:00,86.0,63.4,30.14,SSW,201,3.0,4.0,47,0.00,,,0.00,Wunderground v.1.15,2013-08-18 20:20:00,
2013-08-18 15:25:00,85.9,62.1,30.14,SSW,201,3.0,4.0,45,0.00,,,0.00,Wunderground v.1.15,2013-08-18 20:25:00,
2013-08-18 15:35:00,85.5,61.7,30.14,SSW,201,2.0,2.0,45,0.00,,,0.00,Wunderground v.1.15,2013-08-18 20:35:00,
2013-08-18 15:40:00,85.3,62.8,30.13,SSW,201,2.0,3.0,47,0.00,,,0.00,Wunderground v.1.15,2013-08-18 20:40:00,
2013-08-18 15:50:00,85.0,62.5,30.13,South,171,3.0,3.0,47,0.00,,,0.00,Wunderground v.1.15,2013-08-18 20:50:00,
2013-08-18 15:55:00,84.8,62.9,30.13,SSE,165,3.0,3.0,48,0.00,,,0.00,Wunderground v.1.15,2013-08-18 20:55:00,
2013-08-18 16:05:00,84.3,61.3,30.13,South,174,3.0,6.0,46,0.00,,,0.00,Wunderground v.1.15,2013-08-18 21:05:00,
2013-08-18 16:10:00,84.2,63.0,30.13,South,180,3.0,3.0,49,0.00,,,0.00,Wunderground v.1.15,2013-08-18 21:10:00,
2013-08-18 16:20:00,83.7,62.5,30.13,South,175,3.0,3.0,49,0.00,,,0.00,Wunderground v.1.15,2013-08-18 21:20:00,
2013-08-18 16:25:00,83.5,61.7,30.12,South,175,2.0,4.0,48,0.00,,,0.00,Wunderground v.1.15,2013-08-18 21:25:00,
2013-08-18 16:35:00,83.3,61.6,30.12,South,184,3.0,3.0,48,0.00,,,0.00,Wunderground v.1.15,2013-08-18 21:35:00,
2013-08-18 16:40:00,83.2,61.5,30.12,South,184,2.0,2.0,48,0.00,,,0.00,Wunderground v.1.15,2013-08-18 21:40:00,
2013-08-18 16:50:00,83.0,60.7,30.12,South,184,2.0,3.0,47,0.00,,,0.00,Wunderground v.1.15,2013-08-18 21:50:00,
2013-08-18 16:55:00,82.8,61.7,30.12,South,186,2.0,3.0,49,0.00,,,0.00,Wunderground v.1.15,2013-08-18 21:55:00,
2013-08-18 17:05:00,82.6,60.3,30.12,SSW,192,3.0,4.0,47,0.00,,,0.00,Wunderground v.1.15,2013-08-18 22:05:00,
2013-08-18 17:15:00,82.4,61.3,30.12,SSW,192,3.0,3.0,49,0.00,,,0.00,Wunderground v.1.15,2013-08-18 22:15:00,
2013-08-18 17:20:00,82.3,60.6,30.12,SSW,192,3.0,3.0,48,0.00,,,0.00,Wunderground v.1.15,2013-08-18 22:20:00,
2013-08-18 17:25:00,82.2,61.1,30.12,SSW,192,3.0,3.0,49,0.00,,,0.00,Wunderground v.1.15,2013-08-18 22:25:00,
2013-08-18 17:35:00,82.0,61.0,30.12,SSW,196,3.0,3.0,49,0.00,,,0.00,Wunderground v.1.15,2013-08-18 22:35:00,
2013-08-18 17:45:00,81.9,60.9,30.12,SSW,196,3.0,3.0,49,0.00,,,0.00,Wunderground v.1.15,2013-08-18 22:45:00,
2013-08-18 17:50:00,81.8,61.3,30.11,SSW,196,2.0,2.0,50,0.00,,,0.00,Wunderground v.1.15,2013-08-18 22:50:00,
2013-08-18 18:00:00,81.6,61.2,30.11,SSW,196,2.0,2.0,50,0.00,,,0.00,Wunderground v.1.15,2013-08-18 23:00:00,
2013-08-18 18:05:00,81.6,61.7,30.11,SSW,196,2.0,2.0,51,0.00,,,0.00,Wunderground v.1.15,2013-08-18 23:05:00,
2013-08-18 18:15:00,81.3,62.5,30.11,SSW,196,2.0,2.0,53,0.00,,,0.00,Wunderground v.1.15,2013-08-18 23:15:00,
2013-08-18 18:20:00,81.2,63.0,30.11,SSW,196,2.0,2.0,54,0.00,,,0.00,Wunderground v.1.15,2013-08-18 23:20:00,
2013-08-18 18:30:00,80.9,63.2,30.11,SSW,196,1.0,3.0,55,0.00,,,0.00,Wunderground v.1.15,2013-08-18 23:30:00,
2013-08-18 18:40:00,80.6,64.9,30.12,SSW,196,2.0,3.0,59,0.00,,,0.00,Wunderground v.1.15,2013-08-18 23:40:00,
2013-08-18 18:45:00,80.3,65.1,30.12,SSW,196,2.0,3.0,60,0.00,,,0.00,Wunderground v.1.15,2013-08-18 23:45:00,
2013-08-18 18:50:00,79.9,64.8,30.11,SSW,196,2.0,2.0,60,0.00,,,0.00,Wunderground v.1.15,2013-08-18 23:50:00,
2013-08-18 19:00:00,79.4,65.2,30.12,SSW,196,1.0,1.0,62,0.00,,,0.00,Wunderground v.1.15,2013-08-19 00:00:00,
2013-08-18 19:05:00,79.1,65.9,30.12,SSW,196,1.0,1.0,64,0.00,,,0.00,Wunderground v.1.15,2013-08-19 00:05:00,
2013-08-18 19:15:00,78.5,65.8,30.12,SSW,196,1.0,1.0,65,0.00,,,0.00,Wunderground v.1.15,2013-08-19 00:15:00,
2013-08-18 19:20:00,78.1,65.4,30.12,SSW,196,0.0,0.0,65,0.00,,,0.00,Wunderground v.1.15,2013-08-19 00:20:00,
2013-08-18 19:30:00,77.3,65.5,30.13,SSW,196,0.0,0.0,67,0.00,,,0.00,Wunderground v.1.15,2013-08-19 00:30:00,
2013-08-18 19:35:00,77.0,65.2,30.13,SSW,196,0.0,0.0,67,0.00,,,0.00,Wunderground v.1.15,2013-08-19 00:35:00,
2013-08-18 19:45:00,76.3,65.0,30.13,SSW,196,0.0,0.0,68,0.00,,,0.00,Wunderground v.1.15,2013-08-19 00:45:00,
2013-08-18 19:55:00,75.6,65.1,30.13,SSW,196,0.0,0.0,70,0.00,,,0.00,Wunderground v.1.15,2013-08-19 00:55:00,
2013-08-18 20:00:00,75.2,64.7,30.13,SSW,196,0.0,0.0,70,0.00,,,0.00,Wunderground v.1.15,2013-08-19 01:00:00,
2013-08-18 20:05:00,74.8,64.8,30.13,SSW,196,0.0,0.0,71,0.00,,,0.00,Wunderground v.1.15,2013-08-19 01:05:00,
2013-08-18 20:15:00,74.0,64.0,30.13,SSW,196,0.0,0.0,71,0.00,,,0.00,Wunderground v.1.15,2013-08-19 01:15:00,
2013-08-18 20:25:00,73.4,64.2,30.13,SSW,196,0.0,0.0,73,0.00,,,0.00,Wunderground v.1.15,2013-08-19 01:25:00,
2013-08-18 20:30:00,73.2,64.0,30.13,SSW,196,0.0,0.0,73,0.00,,,0.00,Wunderground v.1.15,2013-08-19 01:30:00,
2013-08-18 20:35:00,72.9,64.1,30.13,SSW,196,0.0,0.0,74,0.00,,,0.00,Wunderground v.1.15,2013-08-19 01:35:00,
2013-08-18 20:45:00,72.4,64.0,30.13,SSW,196,0.0,0.0,75,0.00,,,0.00,Wunderground v.1.15,2013-08-19 01:45:00,
2013-08-18 20:55:00,71.9,63.5,30.13,SSW,196,0.0,0.0,75,0.00,,,0.00,Wunderground v.1.15,2013-08-19 01:55:00,
2013-08-18 21:00:00,71.7,63.7,30.13,SSW,196,0.0,0.0,76,0.00,,,0.00,Wunderground v.1.15,2013-08-19 02:00:00,
2013-08-18 21:10:00,71.2,63.6,30.13,SSW,196,0.0,0.0,77,0.00,,,0.00,Wunderground v.1.15,2013-08-19 02:10:00,
2013-08-18 21:15:00,71.0,63.8,30.14,SSW,196,0.0,0.0,78,0.00,,,0.00,Wunderground v.1.15,2013-08-19 02:15:00,
2013-08-18 21:20:00,70.8,63.6,30.14,SSW,196,0.0,0.0,78,0.00,,,0.00,Wunderground v.1.15,2013-08-19 02:20:00,
2013-08-18 21:25:00,70.5,63.3,30.14,SSW,196,0.0,0.0,78,0.00,,,0.00,Wunderground v.1.15,2013-08-19 02:25:00,
2013-08-18 21:35:00,70.2,63.0,30.14,SSW,196,0.0,0.0,78,0.00,,,0.00,Wunderground v.1.15,2013-08-19 02:35:00,
2013-08-18 21:45:00,69.7,62.5,30.14,SSW,196,0.0,0.0,78,0.00,,,0.00,Wunderground v.1.15,2013-08-19 02:45:00,
2013-08-18 21:50:00,69.4,62.6,30.14,SSW,196,0.0,0.0,79,0.00,,,0.00,Wunderground v.1.15,2013-08-19 02:50:00,
2013-08-18 21:55:00,69.2,62.4,30.14,SSW,196,0.0,0.0,79,0.00,,,0.00,Wunderground v.1.15,2013-08-19 02:55:00,
2013-08-18 22:05:00,68.8,62.4,30.14,SSW,196,0.0,0.0,80,0.00,,,0.00,Wunderground v.1.15,2013-08-19 03:05:00,
2013-08-18 22:15:00,68.5,62.4,30.14,SSW,196,0.0,0.0,81,0.00,,,0.00,Wunderground v.1.15,2013-08-19 03:15:00,
2013-08-18 22:20:00,68.3,62.2,30.15,SSW,196,0.0,0.0,81,0.00,,,0.00,Wunderground v.1.15,2013-08-19 03:20:00,
2013-08-18 22:30:00,67.9,62.2,30.14,SSW,196,0.0,0.0,82,0.00,,,0.00,Wunderground v.1.15,2013-08-19 03:30:00,
2013-08-18 22:35:00,67.8,62.1,30.14,SSW,196,0.0,0.0,82,0.00,,,0.00,Wunderground v.1.15,2013-08-19 03:35:00,
2013-08-18 22:40:00,67.6,61.9,30.14,SSW,196,0.0,0.0,82,0.00,,,0.00,Wunderground v.1.15,2013-08-19 03:40:00,
2013-08-18 22:50:00,67.4,62.1,30.14,SSW,196,0.0,0.0,83,0.00,,,0.00,Wunderground v.1.15,2013-08-19 03:50:00,
2013-08-18 23:00:00,67.1,62.1,30.15,SSW,196,0.0,0.0,84,0.00,,,0.00,Wunderground v.1.15,2013-08-19 04:00:00,
2013-08-18 23:05:00,67.0,62.0,30.15,SSW,196,0.0,0.0,84,0.00,,,0.00,Wunderground v.1.15,2013-08-19 04:05:00,
2013-08-18 23:10:00,66.8,61.8,30.15,SSW,196,0.0,0.0,84,0.00,,,0.00,Wunderground v.1.15,2013-08-19 04:10:00,
2013-08-18 23:15:00,66.7,61.7,30.15,SSW,196,0.0,0.0,84,0.00,,,0.00,Wunderground v.1.15,2013-08-19 04:15:00,
2013-08-18 23:25:00,66.5,61.8,30.15,SSW,196,0.0,0.0,85,0.00,,,0.00,Wunderground v.1.15,2013-08-19 04:25:00,
2013-08-18 23:30:00,66.3,61.7,30.15,SSW,196,0.0,0.0,85,0.00,,,0.00,Wunderground v.1.15,2013-08-19 04:30:00,
2013-08-18 23:40:00,66.2,61.9,30.15,SSW,196,0.0,0.0,86,0.00,,,0.00,Wunderground v.1.15,2013-08-19 04:40:00,
2013-08-18 23:45:00,66.2,61.9,30.15,SSW,196,0.0,0.0,86,0.00,,,0.00,Wunderground v.1.15,2013-08-19 04:45:00,
2013-08-18 23:55:00,66.0,61.7,30.14,SSW,196,0.0,0.0,86,0.00,,,0.00,Wunderground v.1.15,2013-08-19 04:55:00,